North Las Vegas, NV

12:05 AM PDT on October 26, 2014 (GMT -0700)
Photo Patterns | Change Station
CLOSE
Current Station
Personal Weather Station
Location: North Las Vegas, NV
Elevation: 1860 ft
Nearby Weather Stations

Elev 1860 ft 36.22 °N, 115.09 °W | Updated 60 seconds ago

Partly Cloudy
Partly Cloudy
76.3 °F
Feels Like 77 °F
N
6.0
Wind Variable Wind from SW
Gusts 10.0 mph

Today
High -- | Low -- °F
--% Chance of Precip.
Yesterday
High -- | Low -- °F
Precip. -- in
6:57 AM 5:50 PM
Waxing Crescent, 6% visible
Pressure 29.91 in
Visibility 10.0 miles
Clouds Clear
Heat Index 77 °F
Dew Point 40 °F
Humidity 27%
Rainfall 0.00 in
Snow Depth Not available.
UV 0 out of 12
Pollen 5.00 out of 12
Ozone Good
PM2.5 Good
Flu Activity No Activity
METAR KVGT 260653Z 20008KT 10SM CLR 23/03 A2992 RMK AO2 SLP128 T02330033

More Conditions Fewer Conditions

Pressure 29.91 in
Visibility 10.0 miles
Clouds Clear
Heat Index 77 °F
Dew Point 40 °F
Humidity 27%
Rainfall 0.00 in
Snow Depth Not available.
UV 0 out of 12
Pollen 5.00 out of 12
Ozone Good
PM2.5 Good
Flu Activity No Activity
METAR KVGT 260653Z 20008KT 10SM CLR 23/03 A2992 RMK AO2 SLP128 T02330033

More Conditions Fewer Conditions

10-Day Weather Forecast

Almanac

Astronomy

Oct. 26, 2014 Rise Set
Actual Time 6:57 AM PDT 5:50 PM PDT
Civil Twilight 6:31 AM PDT 6:17 PM PDT
Nautical Twilight 6:01 AM PDT 6:47 PM PDT
Astronomical Twilight 5:31 AM PDT 7:16 PM PDT
Moon 9:36 AM PDT 8:09 PM PDT
Length of Visible Light 11h 45m
Length of Day
10h 53m
Tomorrow will be 2m 5s shorter.
Waxing Crescent, 6% of the Moon is Illuminated
Today
Waxing Crescent
Oct 30
First Quarter
Nov 6
Full
Nov 14
Last Quarter
Nov 22
New

Community

WunderPhotos

Upload Photos

1,765,115 photos uploaded!

Nearby

Air Quality

  Air Quality AQ Index Pollutant
Yesterday Good
OZONE
Yesterday Good
PM10
Current Good
OZONE
Current Good
PM2.5
Saturday Good
PM10
Saturday Good
OZONE
Sunday Good
PM10
Sunday Good
OZONE
Monday Good
PM10
Monday Good
OZONE
Tuesday Good
PM10
Tuesday Good
OZONE
Wednesday Good
PM10
Wednesday Good
OZONE

Snow Depth

Station Depth Elevation
Ward Mountain 0 in 9200 ft
Diamond Peak 1 in 8000 ft
Big Creek Summit 1 in 8700 ft
Corral Canyon 0 in 8500 ft
Green Mountain 1 in 8000 ft

Earthquake Activity

City Distance Mag. Time & Date
Barstow, California 126 miles 2.9 2:48 PM PDT
2014-10-25
Running Springs, California 171 miles 3.1 4:07 AM PDT
2014-10-25
Minimum magnitude displayed is 2.5.

Coastal Water Temperatures

Place Temperature
No Stations Reporting

Nearby Weather Stations